createdAt,value
2017-10-27T00:00:07.665Z,86.90
2017-10-27T00:02:34.075Z,87.00
2017-10-27T00:05:00.511Z,87.00
2017-10-27T00:07:26.932Z,86.80
2017-10-27T00:09:53.352Z,86.30
2017-10-27T00:12:19.764Z,85.80
2017-10-27T00:14:46.148Z,85.80
2017-10-27T00:17:12.547Z,85.50
2017-10-27T00:19:38.968Z,85.80
2017-10-27T00:22:05.341Z,85.40
2017-10-27T00:24:31.871Z,85.50
2017-10-27T00:26:58.268Z,85.50
2017-10-27T00:29:24.664Z,85.50
2017-10-27T00:31:51.837Z,85.70
2017-10-27T00:34:18.268Z,85.70
2017-10-27T00:36:45.418Z,85.60
2017-10-27T00:39:12.551Z,86.40
2017-10-27T00:41:38.980Z,86.40
2017-10-27T00:44:05.432Z,86.00
2017-10-27T00:46:32.599Z,86.00
2017-10-27T00:48:59.019Z,86.00
2017-10-27T00:51:25.436Z,86.80
2017-10-27T00:53:52.651Z,87.30
2017-10-27T00:56:19.080Z,87.20
2017-10-27T00:58:45.528Z,86.80
2017-10-27T01:01:11.964Z,86.90
2017-10-27T01:03:38.403Z,86.30
2017-10-27T01:06:04.884Z,86.60
2017-10-27T01:08:31.309Z,86.30
2017-10-27T01:10:57.739Z,86.80
2017-10-27T01:13:24.175Z,86.60
2017-10-27T01:15:50.614Z,86.40
2017-10-27T01:18:17.055Z,86.00
2017-10-27T01:20:43.531Z,85.90
2017-10-27T01:23:09.960Z,85.60
2017-10-27T01:25:36.417Z,86.40
2017-10-27T01:28:03.594Z,85.60
2017-10-27T01:30:30.066Z,85.60
2017-10-27T01:32:56.523Z,85.20
2017-10-27T01:35:22.968Z,85.50
2017-10-27T01:37:49.419Z,85.60
2017-10-27T01:40:15.859Z,85.70
2017-10-27T01:42:42.317Z,86.20
2017-10-27T01:45:08.764Z,86.10
2017-10-27T01:47:35.244Z,85.80
2017-10-27T01:50:02.428Z,85.50
2017-10-27T01:52:28.859Z,85.50
2017-10-27T01:54:55.399Z,85.40
2017-10-27T01:57:21.867Z,85.50
2017-10-27T01:59:49.057Z,85.60
2017-10-27T02:02:16.260Z,85.40
2017-10-27T02:04:42.689Z,85.40
2017-10-27T02:07:09.107Z,85.50
2017-10-27T02:09:36.372Z,85.30
2017-10-27T02:12:02.797Z,85.70
2017-10-27T02:14:29.275Z,86.10
2017-10-27T02:16:55.728Z,85.90
2017-10-27T02:19:22.896Z,86.10
2017-10-27T02:21:49.496Z,86.00
2017-10-27T02:24:15.963Z,85.70
2017-10-27T02:26:42.423Z,86.40
2017-10-27T02:29:08.887Z,86.80
2017-10-27T02:31:35.395Z,86.30
2017-10-27T02:34:01.848Z,85.90
2017-10-27T02:36:28.332Z,85.90
2017-10-27T02:38:54.776Z,85.90
2017-10-27T02:41:21.213Z,85.40
2017-10-27T02:43:47.660Z,85.90
2017-10-27T02:46:14.179Z,86.00
2017-10-27T02:48:40.616Z,85.50
2017-10-27T02:51:07.111Z,86.60
2017-10-27T02:53:34.324Z,86.60
2017-10-27T02:56:00.781Z,86.60
2017-10-27T02:58:27.196Z,86.30
2017-10-27T03:00:53.633Z,86.10
2017-10-27T03:03:20.040Z,86.10
2017-10-27T03:05:46.444Z,85.70
2017-10-27T03:08:12.909Z,86.00
2017-10-27T03:10:39.321Z,86.90
2017-10-27T03:13:05.768Z,86.60
2017-10-27T03:15:32.156Z,86.00
2017-10-27T03:17:59.351Z,86.60
2017-10-27T03:20:25.764Z,86.50
2017-10-27T03:22:52.209Z,86.30
2017-10-27T03:25:18.611Z,85.90
2017-10-27T03:27:45.808Z,85.30
2017-10-27T03:30:12.219Z,85.00
2017-10-27T03:32:38.675Z,86.00
2017-10-27T03:35:05.884Z,85.60
2017-10-27T03:37:32.309Z,86.60
2017-10-27T03:39:59.472Z,86.40
2017-10-27T03:42:25.884Z,86.40
2017-10-27T03:44:53.064Z,87.00
2017-10-27T03:47:19.519Z,87.00
2017-10-27T03:49:45.944Z,86.60
2017-10-27T03:52:12.418Z,86.60
2017-10-27T03:54:38.867Z,86.30
2017-10-27T03:57:05.269Z,87.00
2017-10-27T03:59:31.748Z,86.60
2017-10-27T04:01:58.939Z,87.00
2017-10-27T04:04:25.389Z,86.20
2017-10-27T04:06:51.899Z,85.70
2017-10-27T04:09:18.576Z,85.40
2017-10-27T04:11:45.904Z,85.80
2017-10-27T04:14:12.353Z,85.80
2017-10-27T04:16:38.803Z,85.40
2017-10-27T04:19:05.336Z,86.10
2017-10-27T04:21:31.785Z,85.70
2017-10-27T04:23:58.931Z,85.50
2017-10-27T04:26:25.923Z,85.50
2017-10-27T04:28:52.355Z,85.60
2017-10-27T04:31:18.755Z,85.50
2017-10-27T04:33:45.924Z,85.50
2017-10-27T04:36:12.380Z,85.50
2017-10-27T04:38:38.767Z,85.80
2017-10-27T04:41:05.943Z,86.00
2017-10-27T04:43:32.560Z,85.90
2017-10-27T04:45:59.012Z,85.70
2017-10-27T04:48:25.475Z,85.40
2017-10-27T04:50:51.904Z,85.50
2017-10-27T04:53:18.331Z,85.70
2017-10-27T04:55:44.755Z,85.80
2017-10-27T04:58:11.184Z,86.30
2017-10-27T05:00:37.730Z,86.10
2017-10-27T05:03:04.136Z,86.30
2017-10-27T05:05:30.526Z,86.70
2017-10-27T05:07:57.636Z,86.40
2017-10-27T05:10:24.933Z,85.80
2017-10-27T05:12:59.989Z,86.30
2017-10-27T05:15:31.172Z,86.20
2017-10-27T05:18:04.568Z,86.90
2017-10-27T05:20:38.816Z,86.80
2017-10-27T05:23:12.116Z,86.70
2017-10-27T05:25:39.285Z,86.70
2017-10-27T05:28:06.493Z,86.00
2017-10-27T05:30:34.717Z,85.90
2017-10-27T05:33:01.561Z,85.40
2017-10-27T05:35:28.896Z,86.10
2017-10-27T05:37:56.191Z,86.10
2017-10-27T05:40:25.679Z,85.90
2017-10-27T05:42:55.566Z,85.90
2017-10-27T05:45:22.192Z,85.90
2017-10-27T05:47:50.559Z,85.40
2017-10-27T05:50:19.944Z,86.40
2017-10-27T05:52:49.648Z,86.10
2017-10-27T05:55:16.318Z,86.90
2017-10-27T05:57:42.995Z,85.90
2017-10-27T06:00:09.650Z,86.90
2017-10-27T06:02:36.254Z,86.50
2017-10-27T06:05:02.797Z,86.00
2017-10-27T06:07:29.377Z,85.80
2017-10-27T06:09:55.845Z,86.10
2017-10-27T06:12:22.380Z,87.10
2017-10-27T06:14:49.651Z,86.60
2017-10-27T06:17:16.171Z,86.60
2017-10-27T06:19:42.619Z,86.80
2017-10-27T06:22:09.836Z,87.70
2017-10-27T06:24:36.280Z,87.60
2017-10-27T06:27:02.780Z,87.30
2017-10-27T06:29:29.243Z,87.70
2017-10-27T06:31:55.728Z,87.60
2017-10-27T06:34:22.168Z,87.70
2017-10-27T06:36:48.694Z,87.60
2017-10-27T06:39:15.271Z,87.00
2017-10-27T06:41:41.772Z,86.60
2017-10-27T06:44:08.311Z,86.70
2017-10-27T06:46:34.857Z,86.60
2017-10-27T06:49:01.333Z,86.20
2017-10-27T06:51:27.781Z,86.00
2017-10-27T06:53:54.303Z,85.80
2017-10-27T06:56:20.989Z,86.50
2017-10-27T06:58:47.604Z,86.50
2017-10-27T07:01:14.287Z,86.10
2017-10-27T07:03:40.895Z,86.30
2017-10-27T07:06:07.286Z,86.80
2017-10-27T07:08:33.757Z,86.80
2017-10-27T07:11:00.947Z,86.40
2017-10-27T07:13:27.352Z,86.40
2017-10-27T07:15:53.771Z,86.80
2017-10-27T07:18:20.960Z,86.90
2017-10-27T07:20:47.415Z,86.90
2017-10-27T07:23:13.863Z,86.90
2017-10-27T07:25:40.260Z,86.60
2017-10-27T07:28:06.723Z,86.40
2017-10-27T07:30:33.480Z,86.30
2017-10-27T07:32:59.992Z,85.90
2017-10-27T07:35:27.971Z,86.70
2017-10-27T07:37:54.508Z,87.60
2017-10-27T07:40:20.946Z,88.00
2017-10-27T07:42:47.443Z,87.40
2017-10-27T07:45:13.892Z,88.30
2017-10-27T07:47:40.379Z,88.00
2017-10-27T07:50:06.835Z,87.40
2017-10-27T07:52:33.307Z,86.90
2017-10-27T07:54:59.753Z,86.70
2017-10-27T07:57:27.283Z,87.10
2017-10-27T07:59:53.908Z,87.10
2017-10-27T08:02:20.517Z,87.20
2017-10-27T08:04:46.972Z,86.60
2017-10-27T08:07:14.102Z,86.50
2017-10-27T08:09:44.025Z,86.40
2017-10-27T08:14:45.100Z,87.00
2017-10-27T08:19:45.550Z,86.40
2017-10-27T08:22:12.124Z,86.30
2017-10-27T08:24:39.021Z,87.30
2017-10-27T08:27:07.266Z,86.60
2017-10-27T08:29:33.791Z,87.10
2017-10-27T08:32:04.708Z,87.30
2017-10-27T08:34:39.195Z,87.30
2017-10-27T08:37:10.921Z,87.20
2017-10-27T08:39:42.614Z,87.40
2017-10-27T08:42:25.497Z,86.80
2017-10-27T08:44:54.760Z,86.10
2017-10-27T08:47:24.933Z,86.10
2017-10-27T08:49:51.544Z,86.30
2017-10-27T08:52:18.109Z,86.30
2017-10-27T08:54:48.907Z,85.60
2017-10-27T08:57:23.116Z,85.90
2017-10-27T08:59:51.538Z,85.50
2017-10-27T09:02:18.175Z,85.50
2017-10-27T09:04:44.827Z,85.60
2017-10-27T09:07:12.692Z,84.70
2017-10-27T09:09:40.840Z,85.10
2017-10-27T09:12:08.020Z,84.60
2017-10-27T09:14:34.615Z,85.10
2017-10-27T09:17:08.436Z,86.90
2017-10-27T09:19:52.150Z,86.90
2017-10-27T09:22:20.566Z,86.30
2017-10-27T09:24:53.108Z,86.20
2017-10-27T09:27:19.673Z,87.00
2017-10-27T09:29:47.201Z,88.40
2017-10-27T09:32:19.643Z,87.30
2017-10-27T09:34:48.028Z,88.30
2017-10-27T09:37:16.709Z,87.10
2017-10-27T09:40:10.889Z,86.00
2017-10-27T09:42:38.380Z,86.10
2017-10-27T09:45:08.528Z,86.20
2017-10-27T09:47:39.248Z,86.20
2017-10-27T09:50:07.084Z,86.50
2017-10-27T09:52:44.826Z,86.10
2017-10-27T09:55:13.621Z,85.80
2017-10-27T09:57:40.908Z,85.90
2017-10-27T10:00:07.369Z,86.00
2017-10-27T10:05:35.314Z,84.10
2017-10-27T10:08:01.856Z,84.50
2017-10-27T10:10:28.436Z,85.20
2017-10-27T10:15:30.051Z,85.20
2017-10-27T10:20:32.094Z,81.40
2017-10-27T10:22:59.297Z,81.20
2017-10-27T10:28:22.118Z,82.20
2017-10-27T10:36:11.128Z,83.00
2017-10-27T10:38:39.003Z,83.20
2017-10-27T10:41:05.500Z,83.40
2017-10-27T10:43:32.121Z,83.70
2017-10-27T10:45:59.375Z,84.90
2017-10-27T10:48:26.036Z,84.80
2017-10-27T10:50:53.386Z,85.10
2017-10-27T10:53:21.827Z,88.40
2017-10-27T10:55:49.437Z,88.20
2017-10-27T10:58:17.161Z,89.00
2017-10-27T11:00:45.672Z,88.90
2017-10-27T11:03:12.975Z,88.60
2017-10-27T11:05:44.615Z,88.50
2017-10-27T11:08:11.125Z,90.10
2017-10-27T11:10:37.696Z,89.60
2017-10-27T11:13:18.626Z,88.90
2017-10-27T11:15:47.030Z,90.00
2017-10-27T11:18:14.716Z,90.00
2017-10-27T11:20:41.300Z,89.60
2017-10-27T11:23:13.493Z,88.80
2017-10-27T11:25:40.205Z,88.80
2017-10-27T11:28:07.719Z,88.30
2017-10-27T11:30:34.728Z,89.20
2017-10-27T11:33:01.224Z,89.20
2017-10-27T11:35:33.972Z,88.70
2017-10-27T11:38:01.604Z,88.70
2017-10-27T11:40:29.897Z,88.60
2017-10-27T11:42:56.480Z,89.20
2017-10-27T11:45:23.749Z,88.30
2017-10-27T11:47:53.543Z,87.30
2017-10-27T11:50:21.418Z,87.30
2017-10-27T11:52:49.672Z,87.50
2017-10-27T11:55:16.092Z,87.00
2017-10-27T11:57:42.568Z,86.50
2017-10-27T12:00:29.083Z,86.90
2017-10-27T12:02:57.751Z,86.90
2017-10-27T12:05:25.384Z,87.40
2017-10-27T12:07:52.019Z,87.80
2017-10-27T12:10:20.320Z,87.60
2017-10-27T12:12:46.862Z,83.30
2017-10-27T12:15:15.073Z,80.10
2017-10-27T12:17:41.684Z,80.10
2017-10-27T12:20:11.191Z,78.30
2017-10-27T12:22:55.920Z,75.80
2017-10-27T12:25:24.456Z,75.60
2017-10-27T12:27:54.385Z,76.30
2017-10-27T12:30:22.580Z,71.50
2017-10-27T12:32:51.346Z,71.50
2017-10-27T12:35:24.902Z,69.40
2017-10-27T12:38:09.260Z,65.90
2017-10-27T12:40:42.341Z,65.90
2017-10-27T12:43:09.761Z,66.60
2017-10-27T12:49:04.648Z,61.40
2017-10-27T12:51:35.109Z,61.20
2017-10-27T12:54:04.326Z,59.80
2017-10-27T12:56:31.573Z,59.80
2017-10-27T12:58:59.403Z,61.40
2017-10-27T13:01:28.044Z,60.80
2017-10-27T13:03:55.583Z,58.80
2017-10-27T13:06:22.919Z,59.80
2017-10-27T13:08:51.448Z,59.70
2017-10-27T13:11:19.468Z,58.50
2017-10-27T13:13:45.995Z,58.00
2017-10-27T13:16:14.964Z,66.90
2017-10-27T13:18:42.232Z,59.30
2017-10-27T13:21:10.042Z,58.60
2017-10-27T13:23:37.153Z,60.50
2017-10-27T13:26:04.467Z,66.40
2017-10-27T13:28:30.936Z,66.10
2017-10-27T13:31:15.867Z,60.90
2017-10-27T13:33:49.546Z,64.20
2017-10-27T13:36:17.808Z,59.40
2017-10-27T13:38:44.276Z,58.40
2017-10-27T13:41:10.868Z,56.80
2017-10-27T13:43:39.153Z,56.50
2017-10-27T13:46:07.457Z,57.60
2017-10-27T13:48:37.681Z,57.60
2017-10-27T13:51:04.133Z,59.00
2017-10-27T13:56:54.821Z,55.50
2017-10-27T13:59:22.355Z,57.70
2017-10-27T14:01:49.564Z,55.20
2017-10-27T14:09:21.513Z,59.80
2017-10-27T14:11:52.500Z,55.40
2017-10-27T14:14:18.939Z,55.50
2017-10-27T14:17:10.414Z,55.30
2017-10-27T14:19:38.760Z,54.60
2017-10-27T14:22:06.401Z,54.30
2017-10-27T14:24:35.832Z,53.50
2017-10-27T14:27:04.572Z,57.20
2017-10-27T14:29:32.338Z,53.60
2017-10-27T14:32:00.687Z,57.10
2017-10-27T14:34:28.109Z,57.00
2017-10-27T14:36:54.572Z,56.10
2017-10-27T14:39:35.721Z,53.00
2017-10-27T14:42:03.155Z,53.60
2017-10-27T14:44:42.212Z,52.30
2017-10-27T14:47:08.675Z,54.70
2017-10-27T14:49:36.220Z,55.70
2017-10-27T14:52:04.437Z,51.70
2017-10-27T14:54:32.913Z,51.70
2017-10-27T14:57:03.483Z,55.20
2017-10-27T14:59:29.910Z,55.00
2017-10-27T15:02:05.242Z,56.40
2017-10-27T15:04:38.823Z,56.40
2017-10-27T15:07:05.299Z,54.80
2017-10-27T15:09:34.031Z,55.50
2017-10-27T15:12:02.445Z,54.40
2017-10-27T15:14:30.660Z,54.60
2017-10-27T15:16:58.628Z,54.80
2017-10-27T15:19:26.804Z,55.80
2017-10-27T15:21:53.972Z,57.10
2017-10-27T15:29:56.864Z,56.30
2017-10-27T15:32:25.305Z,57.00
2017-10-27T15:34:54.801Z,56.70
2017-10-27T15:37:21.360Z,58.10
2017-10-27T15:39:49.653Z,55.60
2017-10-27T15:42:16.297Z,55.50
2017-10-27T15:44:42.725Z,57.10
2017-10-27T15:50:06.509Z,54.90
2017-10-27T15:52:40.033Z,57.90
2017-10-27T15:55:22.547Z,54.80
2017-10-27T15:57:49.156Z,54.80
2017-10-27T16:00:20.476Z,58.50
2017-10-27T16:05:41.949Z,55.90
2017-10-27T16:08:09.475Z,58.60
2017-10-27T16:16:22.763Z,58.30
2017-10-27T16:18:49.175Z,58.30
2017-10-27T16:21:15.576Z,61.00
2017-10-27T16:23:41.980Z,56.70
2017-10-27T16:26:08.360Z,57.70
2017-10-27T16:28:34.770Z,56.80
2017-10-27T16:31:01.180Z,56.50
2017-10-27T16:33:28.319Z,58.30
2017-10-27T16:35:54.729Z,58.20
2017-10-27T16:38:21.160Z,57.70
2017-10-27T16:40:47.571Z,57.00
2017-10-27T16:43:13.988Z,57.30
2017-10-27T16:45:40.376Z,56.40
2017-10-27T16:48:06.811Z,58.80
2017-10-27T16:50:33.234Z,59.40
2017-10-27T16:52:59.699Z,59.50
2017-10-27T16:55:26.915Z,59.30
2017-10-27T16:57:53.374Z,59.30
2017-10-27T17:00:20.091Z,58.20
2017-10-27T17:02:46.500Z,57.40
2017-10-27T17:05:12.964Z,57.50
2017-10-27T17:07:39.407Z,58.30
2017-10-27T17:10:05.868Z,59.50
2017-10-27T17:12:33.953Z,58.50
2017-10-27T17:15:00.669Z,58.50
2017-10-27T17:17:27.848Z,58.50
2017-10-27T17:19:54.303Z,58.40
2017-10-27T17:22:20.799Z,59.00
2017-10-27T17:24:47.264Z,58.00
2017-10-27T17:27:13.767Z,58.50
2017-10-27T17:29:40.224Z,60.50
2017-10-27T17:32:06.685Z,60.30
2017-10-27T17:34:33.183Z,59.30
2017-10-27T17:36:59.657Z,59.30
2017-10-27T17:39:26.107Z,59.80
2017-10-27T17:41:53.312Z,57.40
2017-10-27T17:44:20.008Z,57.40
2017-10-27T17:46:48.225Z,60.50
2017-10-27T17:49:14.694Z,60.40
2017-10-27T17:51:41.322Z,60.40
2017-10-27T17:54:07.832Z,59.80
2017-10-27T17:56:34.489Z,56.30
2017-10-27T17:59:01.002Z,58.80
2017-10-27T18:01:27.514Z,58.30
2017-10-27T18:03:53.955Z,59.30
2017-10-27T18:06:20.388Z,59.40
2017-10-27T18:08:46.847Z,58.90
2017-10-27T18:11:13.253Z,59.40
2017-10-27T18:13:39.682Z,59.00
2017-10-27T18:16:06.792Z,59.20
2017-10-27T18:18:33.336Z,58.40
2017-10-27T18:20:59.768Z,59.20
2017-10-27T18:23:26.235Z,59.00
2017-10-27T18:25:52.696Z,59.10
2017-10-27T18:28:19.152Z,58.40
2017-10-27T18:30:45.580Z,59.00
2017-10-27T18:33:12.079Z,59.00
2017-10-27T18:35:39.440Z,59.30
2017-10-27T18:38:05.993Z,59.30
2017-10-27T18:40:33.178Z,59.80
2017-10-27T18:42:59.679Z,59.30
2017-10-27T18:45:26.246Z,60.40
2017-10-27T18:47:53.486Z,59.40
2017-10-27T18:50:21.279Z,59.40
2017-10-27T18:52:47.863Z,59.10
2017-10-27T18:55:14.352Z,60.20
2017-10-27T18:57:41.139Z,59.90
2017-10-27T19:00:07.607Z,59.20
2017-10-27T19:02:34.007Z,58.50
2017-10-27T19:05:00.400Z,58.10
2017-10-27T19:07:26.843Z,59.10
2017-10-27T19:09:53.997Z,58.90
2017-10-27T19:12:21.131Z,58.00
2017-10-27T19:14:47.563Z,58.00
2017-10-27T19:17:13.996Z,58.50
2017-10-27T19:19:40.400Z,57.80
2017-10-27T19:22:07.305Z,57.30
2017-10-27T19:24:34.131Z,59.10
2017-10-27T19:27:00.679Z,59.50
2017-10-27T19:29:28.001Z,59.60
2017-10-27T19:31:55.197Z,59.40
2017-10-27T19:34:21.636Z,59.40
2017-10-27T19:36:48.239Z,60.20
2017-10-27T19:39:14.731Z,59.30
2017-10-27T19:41:41.228Z,59.10
2017-10-27T19:44:07.743Z,59.90
2017-10-27T19:46:34.166Z,60.10
2017-10-27T19:49:00.630Z,60.30
2017-10-27T19:51:27.275Z,59.50
2017-10-27T19:53:53.700Z,59.90
2017-10-27T19:56:20.140Z,61.00
2017-10-27T19:58:46.606Z,61.00
2017-10-27T20:01:15.541Z,60.60
2017-10-27T20:03:42.067Z,60.80
2017-10-27T20:06:09.258Z,62.00
2017-10-27T20:08:35.744Z,62.00
2017-10-27T20:11:03.228Z,61.50
2017-10-27T20:13:29.745Z,61.60
2017-10-27T20:15:57.254Z,62.80
2017-10-27T20:18:23.843Z,62.80
2017-10-27T20:20:50.347Z,62.50
2017-10-27T20:23:16.832Z,63.30
2017-10-27T20:25:44.055Z,62.90
2017-10-27T20:28:11.319Z,63.30
2017-10-27T20:30:37.766Z,62.40
2017-10-27T20:33:04.921Z,61.30
2017-10-27T20:35:31.466Z,61.30
2017-10-27T20:37:57.868Z,60.90
2017-10-27T20:40:24.249Z,58.50
2017-10-27T20:42:50.940Z,59.40
2017-10-27T20:45:17.435Z,59.50
2017-10-27T20:47:44.083Z,61.00
2017-10-27T20:50:10.538Z,61.10
2017-10-27T20:52:37.007Z,61.40
2017-10-27T20:55:03.557Z,61.90
2017-10-27T20:57:29.976Z,60.50
2017-10-27T20:59:56.384Z,60.00
2017-10-27T21:02:23.911Z,59.90
2017-10-27T21:04:50.536Z,60.00
2017-10-27T21:07:16.940Z,62.00
2017-10-27T21:09:43.347Z,60.00
2017-10-27T21:12:10.504Z,59.50
2017-10-27T21:14:37.669Z,60.10
2017-10-27T21:17:04.108Z,59.90
2017-10-27T21:19:30.527Z,61.80
2017-10-27T21:21:57.881Z,59.70
2017-10-27T21:24:24.343Z,59.70
2017-10-27T21:26:50.747Z,63.00
2017-10-27T21:29:17.903Z,62.70
2017-10-27T21:31:44.295Z,61.90
2017-10-27T21:34:10.731Z,60.50
2017-10-27T21:36:37.180Z,62.30
2017-10-27T21:39:03.604Z,61.80
2017-10-27T21:41:30.059Z,62.20
2017-10-27T21:43:57.215Z,62.00
2017-10-27T21:46:24.388Z,61.50
2017-10-27T21:48:50.831Z,61.40
2017-10-27T21:51:17.290Z,62.70
2017-10-27T21:53:43.725Z,61.60
2017-10-27T21:56:10.161Z,59.70
2017-10-27T21:58:36.638Z,60.90
2017-10-27T22:01:03.081Z,62.30
2017-10-27T22:03:29.512Z,60.40
2017-10-27T22:05:55.927Z,61.50
2017-10-27T22:08:23.098Z,61.50
2017-10-27T22:10:49.518Z,61.50
2017-10-27T22:13:15.987Z,61.20
2017-10-27T22:15:42.400Z,60.00
2017-10-27T22:18:08.816Z,58.90
2017-10-27T22:20:36.055Z,58.70
2017-10-27T22:23:03.183Z,60.10
2017-10-27T22:25:29.583Z,60.90
2017-10-27T22:27:56.048Z,60.10
2017-10-27T22:30:22.448Z,60.90
2017-10-27T22:32:48.875Z,59.00
2017-10-27T22:35:16.007Z,58.90
2017-10-27T22:37:42.457Z,58.80
2017-10-27T22:40:08.860Z,58.60
2017-10-27T22:42:35.996Z,59.80
2017-10-27T22:45:03.192Z,60.70
2017-10-27T22:47:30.369Z,60.70
2017-10-27T22:49:56.762Z,60.70
2017-10-27T22:52:23.155Z,60.40
2017-10-27T22:54:49.566Z,60.60
2017-10-27T22:57:16.752Z,59.90
2017-10-27T22:59:43.176Z,60.50
2017-10-27T23:02:10.323Z,60.60
2017-10-27T23:04:36.732Z,60.60
2017-10-27T23:07:04.214Z,60.70
2017-10-27T23:09:30.635Z,60.80
2017-10-27T23:11:57.068Z,62.20
2017-10-27T23:14:23.582Z,61.80
2017-10-27T23:16:50.008Z,61.90
2017-10-27T23:19:16.442Z,62.30
2017-10-27T23:21:42.867Z,63.20
2017-10-27T23:24:09.250Z,63.00
2017-10-27T23:26:36.380Z,63.00
2017-10-27T23:29:02.805Z,62.80
2017-10-27T23:31:29.191Z,64.00
2017-10-27T23:33:55.601Z,64.20
2017-10-27T23:36:22.748Z,65.00
2017-10-27T23:38:52.207Z,64.90
2017-10-27T23:41:18.612Z,64.90
2017-10-27T23:43:45.016Z,64.90
2017-10-27T23:46:12.163Z,64.80
2017-10-27T23:48:38.579Z,64.80
2017-10-27T23:51:04.968Z,65.80
2017-10-27T23:53:31.379Z,66.20
2017-10-27T23:55:57.783Z,65.20
2017-10-27T23:58:24.210Z,66.10
